Time;durP1;ratioP1;P1;durP2;ratioP2;P2;SDS_P1;SDS_P2;PMS_P1;PMS_P2;Temp;Humidity;BMP_temperature;BMP_pressure;BME280_temperature;BME280_humidity;BME280_pressure;Samples;Min_cycle;Max_cycle;Signal;HPM_P1;HPM_P2
2023/04/16 00:01:15;;;;;;;0.70;0.70;;;9.20;99.90;;;;;;4993871;28;20287;-64
2023/04/16 00:03:44;;;;;;;0.85;0.85;;;9.20;99.90;;;;;;4994217;28;20233;-64
2023/04/16 00:06:12;;;;;;;1.42;1.15;;;9.20;99.90;;;;;;4993744;28;20316;-64
2023/04/16 00:08:42;;;;;;;1.25;0.95;;;9.20;99.90;;;;;;4991108;28;20671;-64
2023/04/16 00:11:10;;;;;;;2.20;1.27;;;9.20;99.90;;;;;;4988785;28;20205;-64
2023/04/16 00:13:38;;;;;;;0.85;0.85;;;9.10;99.90;;;;;;4995803;28;20670;-64
2023/04/16 00:16:06;;;;;;;1.15;0.90;;;9.10;99.90;;;;;;4991504;28;20709;-64
2023/04/16 00:18:34;;;;;;;1.00;0.80;;;9.10;99.90;;;;;;4986949;28;20258;-65
2023/04/16 00:21:04;;;;;;;0.55;0.45;;;9.10;99.90;;;;;;4990317;28;20222;-64
2023/04/16 00:23:32;;;;;;;1.27;1.00;;;9.20;99.90;;;;;;4986491;28;20199;-64
2023/04/16 00:25:59;;;;;;;1.20;1.10;;;9.10;99.90;;;;;;4993343;28;20242;-63
2023/04/16 00:28:27;;;;;;;0.70;0.70;;;9.10;99.90;;;;;;4985761;28;20209;-63
2023/04/16 00:30:55;;;;;;;1.10;0.95;;;9.10;99.90;;;;;;4991754;28;20216;-63
2023/04/16 00:33:23;;;;;;;2.05;1.00;;;9.10;99.90;;;;;;4991500;28;20253;-63
2023/04/16 00:35:51;;;;;;;1.55;1.25;;;9.10;99.90;;;;;;4990553;28;20229;-63
2023/04/16 00:38:20;;;;;;;1.45;0.80;;;9.10;99.90;;;;;;4988026;28;20230;-62
2023/04/16 00:40:48;;;;;;;3.28;1.73;;;9.10;99.90;;;;;;4993177;28;20221;-63
2023/04/16 00:43:21;;;;;;;1.25;0.95;;;9.10;99.90;;;;;;4992281;28;20212;-62
2023/04/16 00:45:50;;;;;;;1.85;1.23;;;9.30;99.90;;;;;;4992043;28;20364;-63
2023/04/16 00:48:18;;;;;;;2.03;1.25;;;9.30;99.90;;;;;;4990768;28;20213;-63
2023/04/16 00:50:46;;;;;;;1.27;0.90;;;9.30;99.90;;;;;;4990618;28;20268;-64
2023/04/16 00:53:15;;;;;;;0.95;0.80;;;9.30;99.90;;;;;;4997548;28;20235;-64
2023/04/16 00:55:44;;;;;;;0.70;0.70;;;9.20;99.90;;;;;;4990807;28;20251;-63
2023/04/16 00:58:12;;;;;;;1.35;1.25;;;9.20;99.90;;;;;;4989933;28;20210;-63
2023/04/16 01:00:40;;;;;;;1.35;1.25;;;9.20;99.90;;;;;;4991036;28;20245;-63
2023/04/16 01:03:09;;;;;;;1.15;1.05;;;9.30;99.90;;;;;;4993294;28;20202;-63
2023/04/16 01:05:37;;;;;;;1.25;1.17;;;9.20;99.90;;;;;;4990178;28;20206;-63
2023/04/16 01:08:06;;;;;;;1.92;1.42;;;9.20;99.90;;;;;;4987182;28;20297;-63
2023/04/16 01:10:33;;;;;;;0.70;0.70;;;9.20;99.90;;;;;;4990738;28;20212;-63
2023/04/16 01:13:03;;;;;;;2.45;1.25;;;9.20;99.90;;;;;;4992220;28;20597;-63
2023/04/16 01:15:31;;;;;;;1.38;1.05;;;9.20;99.90;;;;;;4985946;28;20284;-62
2023/04/16 01:17:58;;;;;;;1.13;0.85;;;9.40;99.90;;;;;;4987016;28;20734;-63
2023/04/16 01:20:26;;;;;;;1.27;1.17;;;9.40;99.90;;;;;;4993900;28;20652;-63
2023/04/16 01:22:55;;;;;;;2.03;1.05;;;9.50;99.90;;;;;;4994136;28;20210;-63
2023/04/16 01:25:23;;;;;;;1.30;1.20;;;9.40;99.90;;;;;;4991624;28;20650;-64
2023/04/16 01:27:53;;;;;;;1.27;1.17;;;9.40;99.90;;;;;;4989736;28;20234;-64
2023/04/16 01:30:21;;;;;;;1.05;0.70;;;9.40;99.90;;;;;;4993427;28;20264;-64
2023/04/16 01:32:49;;;;;;;1.13;1.05;;;9.40;99.90;;;;;;4989478;28;20234;-64
2023/04/16 01:35:17;;;;;;;1.08;0.70;;;9.60;99.90;;;;;;4991560;28;20299;-63
2023/04/16 01:37:45;;;;;;;1.55;0.98;;;9.80;99.90;;;;;;4990705;28;20237;-63
2023/04/16 01:40:15;;;;;;;1.35;0.75;;;9.80;99.90;;;;;;4997208;28;20209;-63
2023/04/16 01:42:43;;;;;;;2.53;1.35;;;9.80;99.90;;;;;;4991298;28;20210;-64
2023/04/16 01:45:11;;;;;;;1.02;0.77;;;9.90;99.90;;;;;;4993030;28;20284;-64
2023/04/16 01:47:39;;;;;;;1.15;1.05;;;10.00;99.90;;;;;;4992823;28;20284;-63
2023/04/16 01:50:09;;;;;;;0.70;0.70;;;10.00;99.90;;;;;;4998214;28;20219;-64
2023/04/16 01:52:36;;;;;;;0.70;0.70;;;10.00;99.90;;;;;;4997618;28;20294;-63
2023/04/16 01:55:05;;;;;;;0.82;0.70;;;10.00;99.90;;;;;;4997893;28;20753;-63
2023/04/16 01:57:34;;;;;;;1.48;1.38;;;9.90;99.90;;;;;;4997940;28;20586;-64
2023/04/16 02:00:02;;;;;;;0.75;0.75;;;10.10;99.90;;;;;;4996067;28;20294;-64
2023/04/16 02:02:31;;;;;;;0.80;0.68;;;10.10;99.90;;;;;;4998859;28;20581;-64
2023/04/16 02:04:59;;;;;;;1.23;1.13;;;9.90;99.90;;;;;;4995753;28;20264;-65
2023/04/16 02:07:27;;;;;;;0.70;0.65;;;9.70;99.90;;;;;;4990192;28;20234;-64
2023/04/16 02:09:56;;;;;;;1.65;1.00;;;9.60;99.90;;;;;;4992688;28;20210;-64
2023/04/16 02:12:24;;;;;;;1.23;0.80;;;9.60;99.90;;;;;;4990150;28;20210;-64
2023/04/16 02:14:53;;;;;;;0.70;0.60;;;9.70;99.90;;;;;;4996749;28;20254;-64
2023/04/16 02:17:21;;;;;;;2.03;1.75;;;9.70;99.90;;;;;;5000071;28;20231;-64
2023/04/16 02:19:49;;;;;;;1.17;1.00;;;9.70;99.90;;;;;;4994743;28;20589;-64
2023/04/16 02:22:17;;;;;;;1.35;1.15;;;9.70;99.90;;;;;;4994270;28;20285;-64
2023/04/16 02:24:45;;;;;;;1.67;1.40;;;9.70;99.90;;;;;;4991786;28;20233;-64
2023/04/16 02:27:13;;;;;;;0.75;0.68;;;9.80;99.90;;;;;;4997747;28;20321;-64
2023/04/16 02:29:40;;;;;;;0.82;0.70;;;10.00;99.90;;;;;;4990921;28;20650;-63
2023/04/16 02:32:10;;;;;;;1.13;1.02;;;10.10;99.90;;;;;;4989438;28;20285;-64
2023/04/16 02:34:38;;;;;;;1.65;1.45;;;10.10;99.90;;;;;;4994781;28;20295;-64
2023/04/16 02:37:07;;;;;;;0.60;0.50;;;10.00;99.90;;;;;;4993923;28;20228;-65
2023/04/16 02:39:35;;;;;;;0.63;0.50;;;9.90;99.90;;;;;;4995176;28;20305;-65
2023/04/16 02:42:03;;;;;;;1.00;0.90;;;9.90;99.90;;;;;;4998837;28;20198;-65
2023/04/16 02:44:31;;;;;;;2.08;1.30;;;10.00;99.90;;;;;;4991347;28;20220;-64
2023/04/16 02:46:58;;;;;;;0.80;0.80;;;10.00;99.90;;;;;;4993596;28;20312;-64
2023/04/16 02:49:28;;;;;;;0.85;0.85;;;10.10;99.90;;;;;;4992511;28;20206;-63
2023/04/16 02:51:55;;;;;;;0.60;0.60;;;10.00;99.90;;;;;;4991794;28;20217;-64
2023/04/16 02:54:23;;;;;;;0.70;0.60;;;9.90;99.90;;;;;;4996640;28;20256;-64
2023/04/16 02:56:51;;;;;;;0.93;0.88;;;9.90;99.90;;;;;;4993677;28;20226;-63
2023/04/16 02:59:19;;;;;;;1.35;1.25;;;9.80;99.90;;;;;;4997400;28;20280;-64
2023/04/16 03:01:47;;;;;;;1.17;1.02;;;9.80;99.90;;;;;;4993523;28;20230;-63
2023/04/16 03:04:15;;;;;;;0.98;0.70;;;10.00;99.90;;;;;;4990089;28;20205;-64
2023/04/16 03:06:44;;;;;;;0.80;0.70;;;10.10;99.90;;;;;;4999282;28;20225;-64
2023/04/16 03:09:12;;;;;;;1.58;1.48;;;10.10;99.90;;;;;;4989569;28;20210;-65
2023/04/16 03:11:40;;;;;;;2.05;1.08;;;10.20;99.90;;;;;;4989681;28;20246;-64
2023/04/16 03:14:08;;;;;;;0.80;0.77;;;10.30;99.90;;;;;;4997293;28;20712;-64
2023/04/16 03:16:36;;;;;;;0.60;0.50;;;10.40;99.90;;;;;;4999598;28;20233;-63
2023/04/16 03:19:03;;;;;;;0.90;0.80;;;10.40;99.90;;;;;;4996835;28;20213;-64
2023/04/16 03:21:32;;;;;;;1.30;1.20;;;10.50;99.90;;;;;;4992998;28;20224;-64
2023/04/16 03:24:01;;;;;;;0.80;0.73;;;10.60;99.90;;;;;;4991684;28;20222;-64
2023/04/16 03:26:29;;;;;;;1.60;0.63;;;10.70;99.90;;;;;;4993023;28;20243;-64
2023/04/16 03:28:57;;;;;;;0.80;0.80;;;10.80;99.90;;;;;;4995929;28;20289;-64
2023/04/16 03:31:24;;;;;;;1.13;1.02;;;10.80;99.90;;;;;;4997130;28;20228;-64
2023/04/16 03:33:52;;;;;;;1.42;1.33;;;10.90;99.90;;;;;;4988433;28;20232;-63
2023/04/16 03:36:21;;;;;;;1.08;0.90;;;10.90;99.90;;;;;;4991622;28;20320;-63
2023/04/16 03:38:49;;;;;;;0.80;0.60;;;10.90;99.90;;;;;;4990676;28;20568;-65
2023/04/16 03:41:18;;;;;;;0.70;0.70;;;10.90;99.90;;;;;;4987537;28;20722;-64
2023/04/16 03:43:46;;;;;;;1.05;0.77;;;10.80;99.90;;;;;;4990082;28;20212;-64
2023/04/16 03:46:14;;;;;;;0.95;0.95;;;10.80;99.90;;;;;;4991570;28;20225;-63
2023/04/16 03:48:42;;;;;;;1.55;0.93;;;10.70;99.90;;;;;;4990529;28;20205;-63
2023/04/16 03:51:10;;;;;;;1.98;1.17;;;10.70;99.90;;;;;;4995532;28;20206;-63
2023/04/16 03:53:38;;;;;;;1.15;0.90;;;10.60;99.90;;;;;;4987735;28;20222;-63
2023/04/16 03:56:06;;;;;;;2.00;1.77;;;10.60;99.90;;;;;;4995220;28;20240;-64
2023/04/16 03:58:35;;;;;;;1.23;0.73;;;10.70;99.90;;;;;;4989493;28;20209;-63
2023/04/16 04:01:03;;;;;;;0.70;0.60;;;10.80;99.90;;;;;;4991840;28;20900;-64
2023/04/16 04:03:31;;;;;;;0.70;0.70;;;10.60;99.90;;;;;;4992775;28;20285;-63
2023/04/16 04:05:59;;;;;;;1.17;1.02;;;10.40;99.90;;;;;;4991365;28;20218;-64
2023/04/16 04:08:27;;;;;;;0.60;0.50;;;10.40;99.90;;;;;;4997286;28;20253;-63
2023/04/16 04:10:54;;;;;;;1.80;1.55;;;10.50;99.90;;;;;;4994837;28;20208;-64
2023/04/16 04:13:22;;;;;;;0.60;0.55;;;10.50;99.90;;;;;;4990363;28;20292;-64
2023/04/16 04:15:51;;;;;;;0.90;0.70;;;10.60;99.90;;;;;;4991384;28;20747;-64
2023/04/16 04:18:19;;;;;;;2.05;1.95;;;10.50;99.90;;;;;;4990024;28;20213;-64
2023/04/16 04:20:47;;;;;;;0.60;0.50;;;10.40;99.90;;;;;;4990855;28;20206;-64
2023/04/16 04:23:15;;;;;;;1.15;0.88;;;10.40;99.90;;;;;;4992159;28;20213;-64
2023/04/16 04:25:43;;;;;;;1.20;1.10;;;10.40;99.90;;;;;;4995041;28;20288;-64
2023/04/16 04:28:11;;;;;;;1.02;0.88;;;10.50;99.90;;;;;;4994289;28;20280;-63
2023/04/16 04:30:39;;;;;;;1.40;1.17;;;10.60;99.90;;;;;;4990759;28;20210;-63
2023/04/16 04:33:09;;;;;;;0.90;0.70;;;10.50;99.90;;;;;;4992880;28;20244;-63
2023/04/16 04:35:37;;;;;;;0.60;0.50;;;10.30;99.90;;;;;;4990899;28;20241;-63
2023/04/16 04:38:05;;;;;;;1.33;1.23;;;10.30;99.90;;;;;;4993028;28;20198;-63
2023/04/16 04:40:33;;;;;;;0.93;0.93;;;10.20;99.90;;;;;;4990075;28;20213;-64
2023/04/16 04:43:01;;;;;;;1.63;1.52;;;10.20;99.90;;;;;;4992048;28;20210;-64
2023/04/16 04:45:29;;;;;;;3.80;0.60;;;10.00;99.90;;;;;;4992448;28;20202;-64
2023/04/16 04:47:58;;;;;;;0.90;0.75;;;10.00;99.90;;;;;;4993120;28;20206;-64
2023/04/16 04:50:28;;;;;;;1.23;0.80;;;10.00;99.90;;;;;;4989630;28;20293;-64
2023/04/16 04:52:56;;;;;;;1.00;0.90;;;10.00;99.90;;;;;;4996821;28;20296;-64
2023/04/16 04:55:24;;;;;;;1.05;0.95;;;9.90;99.90;;;;;;4990843;28;20728;-64
2023/04/16 04:57:52;;;;;;;1.42;1.33;;;9.90;99.90;;;;;;4990707;28;20226;-64
2023/04/16 05:00:20;;;;;;;0.82;0.75;;;9.90;99.90;;;;;;4997241;28;20206;-64
2023/04/16 05:02:48;;;;;;;1.25;0.82;;;9.70;99.90;;;;;;4987379;28;20288;-64
2023/04/16 05:05:16;;;;;;;1.20;1.10;;;9.80;99.90;;;;;;4990879;28;20241;-64
2023/04/16 05:07:45;;;;;;;1.20;1.00;;;9.70;99.90;;;;;;4991060;28;20232;-64
2023/04/16 05:10:14;;;;;;;1.20;1.05;;;9.60;99.90;;;;;;4997681;28;20208;-63
2023/04/16 05:12:42;;;;;;;1.55;1.02;;;9.40;99.90;;;;;;4998287;28;20232;-63
2023/04/16 05:15:10;;;;;;;1.00;0.85;;;9.30;99.90;;;;;;4995500;28;20236;-64
2023/04/16 05:17:38;;;;;;;1.08;1.00;;;9.40;99.90;;;;;;4998646;28;20244;-64
2023/04/16 05:20:08;;;;;;;0.60;0.60;;;9.30;99.90;;;;;;4998173;28;20216;-63
2023/04/16 05:22:36;;;;;;;1.00;0.90;;;9.50;99.90;;;;;;4990650;28;20212;-64
2023/04/16 05:25:05;;;;;;;1.35;1.00;;;9.50;99.90;;;;;;4997949;28;20240;-63
2023/04/16 05:27:33;;;;;;;0.82;0.82;;;9.40;99.90;;;;;;4997481;28;20248;-63
2023/04/16 05:30:01;;;;;;;2.30;1.50;;;9.40;99.90;;;;;;4997532;28;20673;-64
2023/04/16 05:32:29;;;;;;;1.20;0.90;;;9.50;99.90;;;;;;4999238;28;20208;-65
2023/04/16 05:34:57;;;;;;;1.27;1.17;;;9.50;99.90;;;;;;4997976;28;20263;-64
2023/04/16 05:37:25;;;;;;;2.47;1.25;;;9.40;99.90;;;;;;4997408;28;20574;-64
2023/04/16 05:39:52;;;;;;;2.05;1.17;;;9.50;99.90;;;;;;4993885;28;20217;-64
2023/04/16 05:42:22;;;;;;;1.75;1.65;;;9.50;99.90;;;;;;4996378;28;20300;-65
2023/04/16 05:44:51;;;;;;;2.10;1.80;;;9.50;99.90;;;;;;5000525;28;20745;-64
2023/04/16 05:47:19;;;;;;;1.10;1.00;;;9.40;99.90;;;;;;4998835;28;20235;-64
2023/04/16 05:49:47;;;;;;;1.70;1.40;;;9.50;99.90;;;;;;4989481;28;20271;-64
2023/04/16 05:52:14;;;;;;;1.05;0.95;;;9.50;99.90;;;;;;5000273;28;20215;-64
2023/04/16 05:54:42;;;;;;;2.65;1.50;;;9.40;99.90;;;;;;4995578;28;20213;-65
2023/04/16 05:57:10;;;;;;;1.10;1.00;;;9.40;99.90;;;;;;4996778;28;20228;-64
2023/04/16 05:59:39;;;;;;;1.77;1.55;;;9.40;99.90;;;;;;4999817;28;20289;-64
2023/04/16 06:02:07;;;;;;;0.93;0.93;;;9.40;99.90;;;;;;4990220;28;20648;-63
2023/04/16 06:04:36;;;;;;;1.83;1.73;;;9.40;99.90;;;;;;4992907;28;20218;-64
2023/04/16 06:07:03;;;;;;;1.25;1.00;;;9.40;99.90;;;;;;4992295;28;20340;-64
2023/04/16 06:09:31;;;;;;;1.75;0.98;;;9.40;99.90;;;;;;4995831;28;20216;-63
2023/04/16 06:12:00;;;;;;;1.42;1.33;;;9.40;99.90;;;;;;4998439;28;20232;-63
2023/04/16 06:14:28;;;;;;;3.40;0.70;;;9.50;99.90;;;;;;4994439;28;20259;-63
2023/04/16 06:16:57;;;;;;;1.55;1.27;;;9.50;99.90;;;;;;4995047;28;20273;-64
2023/04/16 06:19:25;;;;;;;1.05;0.95;;;9.60;99.90;;;;;;5000995;28;20205;-65
2023/04/16 06:21:53;;;;;;;2.90;1.98;;;9.50;99.90;;;;;;4994137;28;20224;-64
2023/04/16 06:24:21;;;;;;;1.27;0.90;;;9.50;99.90;;;;;;4992699;28;20289;-64
2023/04/16 06:26:49;;;;;;;0.80;0.80;;;9.40;99.90;;;;;;4991817;28;20233;-63
2023/04/16 06:29:16;;;;;;;0.98;0.88;;;9.40;99.90;;;;;;4995053;28;20296;-64
2023/04/16 06:31:44;;;;;;;1.35;0.80;;;9.40;99.90;;;;;;4994799;28;20248;-63
2023/04/16 06:34:14;;;;;;;1.42;1.33;;;9.40;99.90;;;;;;4994993;28;20216;-63
2023/04/16 06:36:42;;;;;;;1.55;1.45;;;9.40;99.90;;;;;;4992451;28;20261;-63
2023/04/16 06:39:09;;;;;;;1.20;1.10;;;9.40;99.90;;;;;;4997326;28;20953;-63
2023/04/16 06:41:37;;;;;;;2.10;1.65;;;9.40;99.90;;;;;;4996941;28;20578;-63
2023/04/16 06:44:05;;;;;;;0.98;0.88;;;9.30;99.90;;;;;;4995829;28;20668;-62
2023/04/16 06:46:33;;;;;;;1.20;1.08;;;9.30;99.90;;;;;;4992603;28;20235;-63
2023/04/16 06:49:01;;;;;;;1.52;1.42;;;9.30;99.90;;;;;;4992297;28;20214;-64
2023/04/16 06:51:30;;;;;;;1.08;0.88;;;9.30;99.90;;;;;;4994945;28;20579;-63
2023/04/16 06:53:58;;;;;;;1.88;1.77;;;9.40;99.90;;;;;;4996474;28;20263;-63
2023/04/16 06:56:26;;;;;;;2.47;1.40;;;9.30;99.90;;;;;;4994252;28;20243;-63
2023/04/16 06:58:55;;;;;;;2.15;0.70;;;9.20;99.90;;;;;;4995068;28;20219;-64
2023/04/16 07:01:23;;;;;;;1.10;1.00;;;9.30;99.90;;;;;;4997865;28;20210;-62
2023/04/16 07:03:51;;;;;;;1.52;1.42;;;9.30;99.90;;;;;;4994746;28;20228;-62
2023/04/16 07:06:20;;;;;;;0.82;0.70;;;9.30;99.90;;;;;;4989619;28;20233;-63
2023/04/16 07:08:49;;;;;;;0.80;0.80;;;9.30;99.90;;;;;;4995146;28;20272;-63
2023/04/16 07:11:19;;;;;;;0.80;0.60;;;9.20;99.90;;;;;;4999872;28;20669;-63
2023/04/16 07:13:47;;;;;;;1.02;1.00;;;9.20;99.90;;;;;;4997853;28;20325;-63
2023/04/16 07:16:15;;;;;;;1.15;1.05;;;9.20;99.90;;;;;;4996660;28;20222;-63
2023/04/16 07:18:43;;;;;;;0.70;0.50;;;9.20;99.90;;;;;;4998159;28;20224;-63
2023/04/16 07:21:11;;;;;;;0.80;0.60;;;9.20;99.90;;;;;;4996913;28;20952;-63
2023/04/16 07:23:39;;;;;;;0.90;0.70;;;9.10;99.90;;;;;;4994552;28;20208;-64
2023/04/16 07:26:08;;;;;;;0.80;0.70;;;9.10;99.90;;;;;;4993735;28;20319;-64
2023/04/16 07:28:36;;;;;;;1.38;1.20;;;9.10;99.90;;;;;;4994738;28;20324;-65
2023/04/16 07:31:04;;;;;;;1.85;0.88;;;9.10;99.90;;;;;;4996199;28;20209;-65
2023/04/16 07:33:32;;;;;;;1.73;0.98;;;9.00;99.90;;;;;;4999163;28;20244;-65
2023/04/16 07:35:59;;;;;;;1.40;1.17;;;9.10;99.90;;;;;;4988524;28;20234;-63
2023/04/16 07:38:27;;;;;;;1.25;1.00;;;9.20;99.90;;;;;;4994818;28;20292;-63
2023/04/16 07:40:55;;;;;;;1.40;0.70;;;9.20;99.90;;;;;;4993429;28;20288;-63
2023/04/16 07:43:25;;;;;;;0.60;0.60;;;9.20;99.90;;;;;;4997753;28;20212;-64
2023/04/16 07:45:53;;;;;;;0.70;0.65;;;9.20;99.90;;;;;;4994412;28;20248;-64
2023/04/16 07:48:22;;;;;;;0.82;0.82;;;9.20;99.90;;;;;;4992793;28;20198;-63
2023/04/16 07:50:50;;;;;;;3.30;2.03;;;9.20;99.90;;;;;;4994135;28;20206;-63
2023/04/16 07:53:17;;;;;;;1.17;0.98;;;9.20;99.90;;;;;;4993095;28;20237;-64
2023/04/16 07:55:45;;;;;;;0.70;0.60;;;9.20;99.90;;;;;;4994315;28;20256;-63
2023/04/16 07:58:13;;;;;;;1.95;1.70;;;9.20;99.90;;;;;;4998357;28;20774;-63
2023/04/16 08:00:42;;;;;;;1.42;1.00;;;9.40;99.90;;;;;;4990599;28;20592;-63
2023/04/16 08:03:10;;;;;;;0.80;0.80;;;9.50;99.90;;;;;;4990429;28;20210;-63
2023/04/16 08:05:38;;;;;;;0.57;0.45;;;9.50;99.90;;;;;;4989425;28;20579;-63
2023/04/16 08:08:06;;;;;;;2.13;1.45;;;9.60;99.90;;;;;;4990917;28;20241;-63
2023/04/16 08:10:34;;;;;;;2.35;1.50;;;9.60;99.90;;;;;;4992063;28;20314;-63
2023/04/16 08:13:02;;;;;;;1.40;1.15;;;9.60;99.90;;;;;;4992355;28;20293;-63
2023/04/16 08:15:30;;;;;;;1.83;1.73;;;9.60;99.90;;;;;;4993987;28;20256;-63
2023/04/16 08:18:00;;;;;;;0.90;0.90;;;9.50;99.90;;;;;;4994417;28;20575;-63
2023/04/16 08:20:28;;;;;;;0.93;0.88;;;9.50;99.90;;;;;;4993537;28;20198;-63
2023/04/16 08:22:55;;;;;;;1.38;1.27;;;9.60;99.90;;;;;;4996723;28;20210;-63
2023/04/16 08:25:23;;;;;;;1.23;1.15;;;9.60;99.90;;;;;;4985430;28;20202;-63
2023/04/16 08:27:51;;;;;;;1.90;1.80;;;9.60;99.90;;;;;;4987358;28;20643;-63
2023/04/16 08:30:20;;;;;;;2.17;0.77;;;9.80;99.90;;;;;;4998641;28;20762;-63
2023/04/16 08:32:48;;;;;;;0.68;0.68;;;9.80;99.90;;;;;;4987151;28;20220;-63
2023/04/16 08:35:18;;;;;;;1.17;1.00;;;9.90;99.90;;;;;;4987123;28;20677;-63
2023/04/16 08:37:46;;;;;;;1.40;1.30;;;10.00;99.90;;;;;;4991266;28;20312;-63
2023/04/16 08:40:15;;;;;;;0.60;0.50;;;10.20;99.90;;;;;;4995987;28;20212;-64
2023/04/16 08:42:48;;;;;;;0.70;0.70;;;10.20;99.90;;;;;;4995700;28;20207;-62
2023/04/16 08:45:17;;;;;;;1.08;1.08;;;10.20;99.90;;;;;;4970450;28;20222;-63
2023/04/16 08:47:47;;;;;;;1.73;1.33;;;10.20;99.90;;;;;;4993899;28;20225;-63
2023/04/16 08:50:18;;;;;;;1.52;1.42;;;10.20;99.90;;;;;;4994206;28;20220;-63
2023/04/16 08:52:50;;;;;;;1.50;1.33;;;10.10;99.90;;;;;;4995562;28;20283;-63
2023/04/16 08:55:22;;;;;;;1.73;1.00;;;10.10;99.90;;;;;;4991389;28;20256;-63
2023/04/16 08:57:53;;;;;;;1.25;1.00;;;10.10;99.90;;;;;;4990147;28;20321;-63
2023/04/16 09:00:22;;;;;;;1.02;0.95;;;10.20;99.90;;;;;;4991377;28;20226;-64
2023/04/16 09:02:51;;;;;;;1.23;1.13;;;10.30;99.90;;;;;;5001953;28;20874;-63
2023/04/16 09:05:24;;;;;;;1.23;1.13;;;10.30;99.90;;;;;;4996041;28;20285;-63
2023/04/16 09:07:53;;;;;;;1.52;1.00;;;10.30;99.90;;;;;;4993811;28;20248;-63
2023/04/16 09:10:21;;;;;;;0.95;0.77;;;10.40;99.90;;;;;;4994724;28;21741;-63
2023/04/16 09:12:50;;;;;;;1.45;1.35;;;10.40;99.90;;;;;;4990819;28;20208;-63
2023/04/16 09:15:21;;;;;;;2.15;1.15;;;10.50;99.90;;;;;;5000618;28;20802;-65
2023/04/16 09:17:49;;;;;;;1.98;1.88;;;10.50;99.90;;;;;;4999829;28;20311;-64
2023/04/16 09:20:17;;;;;;;1.23;1.08;;;10.60;99.90;;;;;;4999154;28;20210;-64
2023/04/16 09:22:46;;;;;;;2.20;0.80;;;10.60;99.90;;;;;;4991759;28;20221;-63
2023/04/16 09:25:15;;;;;;;1.05;0.95;;;10.70;99.90;;;;;;4992409;28;20210;-62
2023/04/16 09:27:43;;;;;;;0.80;0.73;;;10.80;99.90;;;;;;4991506;28;20324;-63
2023/04/16 09:30:22;;;;;;;1.17;0.95;;;10.90;99.90;;;;;;4991759;28;20290;-63
2023/04/16 09:32:51;;;;;;;0.70;0.70;;;10.90;99.90;;;;;;4992213;28;20300;-63
2023/04/16 09:35:20;;;;;;;0.60;0.60;;;10.90;99.90;;;;;;4993802;28;20256;-63
2023/04/16 09:38:00;;;;;;;3.83;1.38;;;10.90;99.90;;;;;;4992318;28;20341;-63
2023/04/16 09:40:30;;;;;;;1.23;1.15;;;10.90;99.90;;;;;;4993990;28;20201;-63
2023/04/16 09:42:59;;;;;;;0.90;0.65;;;11.00;99.90;;;;;;4986391;28;20663;-63
2023/04/16 09:45:32;;;;;;;1.27;0.70;;;11.00;99.90;;;;;;4994329;28;20197;-64
2023/04/16 09:48:03;;;;;;;2.05;1.83;;;11.00;99.90;;;;;;4994423;28;20655;-64
2023/04/16 09:50:31;;;;;;;1.60;1.50;;;11.00;99.90;;;;;;4994646;28;20213;-64
2023/04/16 09:53:03;;;;;;;1.10;0.50;;;11.00;99.90;;;;;;4986792;28;20289;-64
2023/04/16 09:55:32;;;;;;;2.15;0.75;;;11.10;99.90;;;;;;4993614;28;20670;-64
2023/04/16 09:58:01;;;;;;;1.30;1.20;;;11.20;99.90;;;;;;4985438;28;20276;-64
2023/04/16 10:00:30;;;;;;;1.02;1.02;;;11.20;99.90;;;;;;4994206;28;20202;-63
2023/04/16 10:03:05;;;;;;;0.98;0.88;;;11.30;99.90;;;;;;4994410;28;20688;-63
2023/04/16 10:05:34;;;;;;;1.42;1.33;;;11.40;99.90;;;;;;4993955;28;20622;-63
2023/04/16 10:08:10;;;;;;;2.60;2.40;;;11.40;99.90;;;;;;4986491;28;20206;-63
2023/04/16 10:10:38;;;;;;;0.57;0.45;;;11.50;99.90;;;;;;4986603;28;20206;-64
2023/04/16 10:13:06;;;;;;;0.60;0.50;;;11.60;99.90;;;;;;4994896;28;20288;-64
2023/04/16 10:15:34;;;;;;;1.10;1.10;;;11.80;99.90;;;;;;4994054;28;20252;-63
2023/04/16 10:18:03;;;;;;;1.42;1.33;;;11.90;99.90;;;;;;4994323;28;20308;-63
2023/04/16 10:20:31;;;;;;;1.27;0.70;;;12.10;99.90;;;;;;4987652;28;20202;-64
2023/04/16 10:22:59;;;;;;;0.98;0.70;;;12.10;99.90;;;;;;4994697;28;20206;-64
2023/04/16 10:25:29;;;;;;;0.80;0.80;;;12.30;99.90;;;;;;4994209;28;20706;-64
2023/04/16 10:27:58;;;;;;;0.60;0.55;;;12.40;99.90;;;;;;4975012;28;20241;-64
2023/04/16 10:30:27;;;;;;;1.67;0.68;;;12.50;99.90;;;;;;4974723;28;20298;-63
2023/04/16 10:32:55;;;;;;;1.42;0.85;;;12.50;99.90;;;;;;4982166;28;20224;-63
2023/04/16 10:35:26;;;;;;;1.58;1.48;;;12.40;99.90;;;;;;4970516;28;20273;-64
2023/04/16 10:37:56;;;;;;;1.60;1.45;;;12.30;99.90;;;;;;4974461;28;20681;-64
2023/04/16 10:40:26;;;;;;;1.60;1.50;;;12.20;99.90;;;;;;4974667;28;20293;-64
2023/04/16 10:42:57;;;;;;;1.10;1.00;;;12.00;99.90;;;;;;4974230;28;20210;-65
2023/04/16 10:45:31;;;;;;;0.90;0.85;;;11.90;99.90;;;;;;4975643;28;20542;-64
2023/04/16 10:48:04;;;;;;;0.63;0.63;;;11.90;99.90;;;;;;4969017;28;20198;-64
2023/04/16 10:50:35;;;;;;;0.80;0.77;;;11.90;99.90;;;;;;4974976;28;20211;-64
2023/04/16 10:53:20;;;;;;;1.67;0.98;;;11.90;99.90;;;;;;4966571;28;20262;-64
2023/04/16 10:55:58;;;;;;;1.40;1.30;;;11.70;99.90;;;;;;4974091;28;20301;-64
2023/04/16 10:58:31;;;;;;;1.10;1.02;;;11.70;99.90;;;;;;4974682;28;20218;-65
2023/04/16 11:01:00;;;;;;;1.05;0.95;;;11.70;99.90;;;;;;4977865;28;20714;-65
2023/04/16 11:03:31;;;;;;;1.20;1.10;;;11.60;99.90;;;;;;4994068;28;20210;-64
2023/04/16 11:06:13;;;;;;;1.55;1.45;;;11.50;99.90;;;;;;4973692;28;20231;-64
2023/04/16 11:08:42;;;;;;;1.05;0.88;;;11.50;99.90;;;;;;4972861;28;20234;-64
2023/04/16 11:11:21;;;;;;;2.40;0.80;;;11.40;99.90;;;;;;4974428;28;20211;-63
2023/04/16 11:13:55;;;;;;;1.13;0.82;;;11.30;99.90;;;;;;4973928;28;20235;-64
2023/04/16 11:16:26;;;;;;;1.20;1.10;;;11.30;99.90;;;;;;4973837;28;20234;-64
2023/04/16 11:18:55;;;;;;;0.60;0.60;;;11.20;99.90;;;;;;4973483;28;20226;-64
2023/04/16 11:21:24;;;;;;;0.85;0.85;;;11.20;99.90;;;;;;4973189;28;20216;-64
2023/04/16 11:23:53;;;;;;;1.55;1.25;;;11.20;99.90;;;;;;4972043;28;20302;-64
2023/04/16 11:26:24;;;;;;;1.38;1.27;;;11.20;99.90;;;;;;4973551;28;20683;-64
2023/04/16 11:28:55;;;;;;;1.58;1.50;;;11.30;99.90;;;;;;4974223;28;20671;-64
2023/04/16 11:31:23;;;;;;;1.13;0.65;;;11.40;99.90;;;;;;4980276;28;20210;-64
2023/04/16 11:33:51;;;;;;;2.03;1.48;;;11.50;99.90;;;;;;4975273;28;20229;-64
2023/04/16 11:36:19;;;;;;;1.65;0.90;;;11.50;99.90;;;;;;4973331;28;20311;-63
2023/04/16 11:38:47;;;;;;;1.35;1.25;;;11.50;99.90;;;;;;4974076;28;20254;-64
2023/04/16 11:41:20;;;;;;;1.80;1.70;;;11.50;99.90;;;;;;4973722;28;20297;-64
2023/04/16 11:43:48;;;;;;;1.77;1.15;;;11.60;99.90;;;;;;4973861;28;20245;-64
2023/04/16 11:46:17;;;;;;;2.28;1.92;;;11.60;99.90;;;;;;4973581;28;20281;-64
2023/04/16 11:48:55;;;;;;;0.70;0.70;;;11.70;99.90;;;;;;4973756;28;20297;-64
2023/04/16 11:51:23;;;;;;;2.03;1.92;;;11.80;99.90;;;;;;4973156;28;20241;-63
2023/04/16 11:53:52;;;;;;;0.90;0.90;;;11.80;99.90;;;;;;4973141;28;20206;-63
2023/04/16 11:56:27;;;;;;;1.95;1.85;;;11.80;99.90;;;;;;4972955;28;20265;-63
2023/04/16 11:59:10;;;;;;;0.82;0.68;;;11.80;99.90;;;;;;4972922;28;20210;-63
2023/04/16 12:01:41;;;;;;;0.75;0.75;;;11.90;99.90;;;;;;4979467;28;20591;-63
2023/04/16 12:04:09;;;;;;;1.33;1.23;;;11.90;99.90;;;;;;4966456;28;20277;-64
2023/04/16 12:06:38;;;;;;;1.38;1.27;;;12.00;99.90;;;;;;4972668;28;20279;-63
2023/04/16 12:09:25;;;;;;;3.47;3.17;;;12.00;99.90;;;;;;4973513;28;20667;-64
2023/04/16 12:11:53;;;;;;;1.75;1.25;;;12.00;99.90;;;;;;4973000;28;20297;-63
2023/04/16 12:14:21;;;;;;;2.13;1.92;;;12.10;99.90;;;;;;4973292;28;20286;-64
2023/04/16 12:16:50;;;;;;;1.63;1.52;;;12.10;99.90;;;;;;4972925;28;20235;-64
2023/04/16 12:19:18;;;;;;;0.98;0.95;;;12.00;99.90;;;;;;4971979;28;20226;-64
2023/04/16 12:21:47;;;;;;;2.90;2.70;;;12.00;99.90;;;;;;4967464;28;20237;-63
2023/04/16 12:24:19;;;;;;;2.00;1.40;;;12.00;99.90;;;;;;4973480;28;20301;-64
2023/04/16 12:26:54;;;;;;;2.55;2.35;;;11.90;99.90;;;;;;4972615;28;20246;-63
2023/04/16 12:29:24;;;;;;;1.40;1.27;;;11.90;99.90;;;;;;4973417;28;20266;-63
2023/04/16 12:31:54;;;;;;;2.20;1.85;;;11.90;99.90;;;;;;4974504;28;20207;-63
2023/04/16 12:34:22;;;;;;;2.75;1.63;;;11.90;99.90;;;;;;4987292;28;20206;-63
2023/04/16 12:37:11;;;;;;;3.22;1.65;;;11.90;99.90;;;;;;4965750;28;20226;-63
2023/04/16 12:39:38;;;;;;;1.75;1.45;;;11.90;99.90;;;;;;4972830;28;20337;-63
2023/04/16 12:42:10;;;;;;;1.25;1.15;;;11.80;99.90;;;;;;4973636;28;20202;-63
2023/04/16 12:44:37;;;;;;;1.05;0.80;;;11.80;99.90;;;;;;4970471;28;20289;-63
2023/04/16 12:47:06;;;;;;;1.02;1.02;;;11.90;99.90;;;;;;4971280;28;20325;-63
2023/04/16 12:49:35;;;;;;;2.95;2.17;;;11.90;99.90;;;;;;4965065;28;20209;-64
2023/04/16 12:52:04;;;;;;;1.00;1.00;;;11.90;99.90;;;;;;4972963;28;20221;-63
2023/04/16 12:54:32;;;;;;;2.47;1.55;;;11.90;99.90;;;;;;4973229;28;20683;-63
2023/04/16 12:57:00;;;;;;;1.75;1.52;;;12.00;99.90;;;;;;4972621;28;20265;-63
2023/04/16 12:59:28;;;;;;;1.10;0.90;;;12.00;99.90;;;;;;4973481;28;20223;-63
2023/04/16 13:01:56;;;;;;;1.20;1.10;;;12.10;99.90;;;;;;4974300;28;20230;-63